sensor_id;sensor_type;location;lat;lon;timestamp;pressure;altitude;pressure_sealevel;temperature;humidity
41531;BME280;58990;46.284;13.126;2022-08-04T00:02:03;99426.78;;;23.75;52.53
41531;BME280;58990;46.284;13.126;2022-08-04T00:10:07;99427.78;;;23.48;53.34
41531;BME280;58990;46.284;13.126;2022-08-04T00:12:36;99429.66;;;23.53;52.88
41531;BME280;58990;46.284;13.126;2022-08-04T00:15:04;99427.00;;;23.53;53.22
41531;BME280;58990;46.284;13.126;2022-08-04T00:17:39;99424.59;;;23.57;52.81
41531;BME280;58990;46.284;13.126;2022-08-04T00:20:05;99420.03;;;23.52;52.98
41531;BME280;58990;46.284;13.126;2022-08-04T00:22:34;99425.66;;;23.56;52.87
41531;BME280;58990;46.284;13.126;2022-08-04T00:25:02;99421.38;;;23.55;52.47
41531;BME280;58990;46.284;13.126;2022-08-04T00:27:30;99423.53;;;23.52;52.32
41531;BME280;58990;46.284;13.126;2022-08-04T00:29:57;99420.31;;;23.56;52.25
41531;BME280;58990;46.284;13.126;2022-08-04T00:32:25;99417.06;;;23.54;52.37
41531;BME280;58990;46.284;13.126;2022-08-04T00:34:50;99421.38;;;23.55;52.40
41531;BME280;58990;46.284;13.126;2022-08-04T00:37:20;99419.50;;;23.50;52.73
41531;BME280;58990;46.284;13.126;2022-08-04T00:39:46;99421.91;;;23.51;52.40
41531;BME280;58990;46.284;13.126;2022-08-04T00:53:21;99425.81;;;23.23;53.69
41531;BME280;58990;46.284;13.126;2022-08-04T00:58:58;99424.91;;;23.12;54.24
41531;BME280;58990;46.284;13.126;2022-08-04T01:16:15;99417.31;;;22.94;54.20
41531;BME280;58990;46.284;13.126;2022-08-04T01:29:48;99394.69;;;22.69;54.81
41531;BME280;58990;46.284;13.126;2022-08-04T01:32:37;99401.09;;;22.68;55.00
41531;BME280;58990;46.284;13.126;2022-08-04T01:35:10;99397.41;;;22.74;54.57
41531;BME280;58990;46.284;13.126;2022-08-04T01:37:59;99398.50;;;22.78;54.39
41531;BME280;58990;46.284;13.126;2022-08-04T01:40:27;99401.41;;;22.77;54.65
41531;BME280;58990;46.284;13.126;2022-08-04T01:42:53;99407.28;;;22.74;54.72
41531;BME280;58990;46.284;13.126;2022-08-04T01:45:22;99398.19;;;22.75;54.24
41531;BME280;58990;46.284;13.126;2022-08-04T01:47:51;99396.31;;;22.75;54.53
41531;BME280;58990;46.284;13.126;2022-08-04T01:50:17;99396.03;;;22.72;54.46
41531;BME280;58990;46.284;13.126;2022-08-04T01:52:44;99397.09;;;22.71;54.45
41531;BME280;58990;46.284;13.126;2022-08-04T01:55:12;99389.28;;;22.64;54.50
41531;BME280;58990;46.284;13.126;2022-08-04T01:57:50;99395.13;;;22.56;54.95
41531;BME280;58990;46.284;13.126;2022-08-04T02:00:21;99390.53;;;22.51;55.11
41531;BME280;58990;46.284;13.126;2022-08-04T02:02:49;99388.69;;;22.51;55.44
41531;BME280;58990;46.284;13.126;2022-08-04T02:05:17;99398.75;;;22.39;55.93
41531;BME280;58990;46.284;13.126;2022-08-04T02:16:01;99386.19;;;22.40;55.70
41531;BME280;58990;46.284;13.126;2022-08-04T02:21:19;99378.59;;;22.31;55.59
41531;BME280;58990;46.284;13.126;2022-08-04T02:23:50;99374.25;;;22.25;56.22
41531;BME280;58990;46.284;13.126;2022-08-04T02:26:21;99377.50;;;22.27;55.89
41531;BME280;58990;46.284;13.126;2022-08-04T02:31:48;99376.19;;;22.30;55.86
41531;BME280;58990;46.284;13.126;2022-08-04T02:34:24;99379.34;;;22.27;56.08
41531;BME280;58990;46.284;13.126;2022-08-04T02:36:53;99373.41;;;22.20;56.52
41531;BME280;58990;46.284;13.126;2022-08-04T02:39:20;99376.13;;;22.25;55.87
41531;BME280;58990;46.284;13.126;2022-08-04T02:41:48;99385.72;;;22.21;55.89
41531;BME280;58990;46.284;13.126;2022-08-04T02:44:19;99377.72;;;22.21;55.86
41531;BME280;58990;46.284;13.126;2022-08-04T02:46:47;99367.00;;;22.21;55.93
41531;BME280;58990;46.284;13.126;2022-08-04T02:49:16;99366.41;;;22.13;56.05
41531;BME280;58990;46.284;13.126;2022-08-04T02:51:46;99373.94;;;22.16;55.94
41531;BME280;58990;46.284;13.126;2022-08-04T02:54:15;99371.75;;;22.13;56.16
41531;BME280;58990;46.284;13.126;2022-08-04T02:56:44;99367.63;;;22.00;56.60
41531;BME280;58990;46.284;13.126;2022-08-04T02:59:12;99365.28;;;22.09;55.95
41531;BME280;58990;46.284;13.126;2022-08-04T03:01:39;99369.53;;;22.05;56.54
41531;BME280;58990;46.284;13.126;2022-08-04T03:10:17;99352.44;;;22.06;55.96
41531;BME280;58990;46.284;13.126;2022-08-04T03:13:24;99356.75;;;22.07;56.33
41531;BME280;58990;46.284;13.126;2022-08-04T03:16:00;99352.91;;;21.98;56.21
41531;BME280;58990;46.284;13.126;2022-08-04T03:27:11;99360.69;;;21.99;56.23
41531;BME280;58990;46.284;13.126;2022-08-04T03:30:04;99358.78;;;21.95;56.28
41531;BME280;58990;46.284;13.126;2022-08-04T04:24:50;99351.44;;;21.85;56.18
41531;BME280;58990;46.284;13.126;2022-08-04T04:30:24;99358.66;;;21.84;56.56
41531;BME280;58990;46.284;13.126;2022-08-04T04:36:09;99359.97;;;21.82;56.83
41531;BME280;58990;46.284;13.126;2022-08-04T04:53:01;99364.81;;;21.85;56.32
41531;BME280;58990;46.284;13.126;2022-08-04T04:55:46;99367.25;;;21.87;56.54
41531;BME280;58990;46.284;13.126;2022-08-04T04:58:16;99373.91;;;21.84;56.69
41531;BME280;58990;46.284;13.126;2022-08-04T05:15:28;99371.75;;;22.13;55.17
41531;BME280;58990;46.284;13.126;2022-08-04T05:17:56;99369.59;;;22.10;55.54
41531;BME280;58990;46.284;13.126;2022-08-04T05:20:33;99371.22;;;22.11;55.13
41531;BME280;58990;46.284;13.126;2022-08-04T05:23:02;99374.47;;;22.18;54.88
41531;BME280;58990;46.284;13.126;2022-08-04T05:31:08;99362.91;;;23.26;52.63
41531;BME280;58990;46.284;13.126;2022-08-04T05:33:47;99353.28;;;27.42;41.99
41531;BME280;58990;46.284;13.126;2022-08-04T05:36:17;99360.28;;;29.72;36.74
41531;BME280;58990;46.284;13.126;2022-08-04T05:38:48;99358.22;;;32.05;32.75
41531;BME280;58990;46.284;13.126;2022-08-04T05:41:15;99361.75;;;32.23;31.75
41531;BME280;58990;46.284;13.126;2022-08-04T05:43:43;99365.81;;;32.47;30.97
41531;BME280;58990;46.284;13.126;2022-08-04T05:46:11;99368.75;;;33.10;30.25
41531;BME280;58990;46.284;13.126;2022-08-04T05:48:38;99367.47;;;33.59;29.28
41531;BME280;58990;46.284;13.126;2022-08-04T05:51:05;99364.94;;;33.96;28.41
41531;BME280;58990;46.284;13.126;2022-08-04T05:53:33;99359.25;;;33.46;28.61
41531;BME280;58990;46.284;13.126;2022-08-04T05:56:01;99366.81;;;30.79;33.78
41531;BME280;58990;46.284;13.126;2022-08-04T05:58:28;99366.28;;;28.77;37.84
41531;BME280;58990;46.284;13.126;2022-08-04T06:00:55;99364.53;;;27.25;40.32
41531;BME280;58990;46.284;13.126;2022-08-04T06:03:22;99362.03;;;26.56;42.26
41531;BME280;58990;46.284;13.126;2022-08-04T06:05:50;99362.88;;;26.22;43.53
41531;BME280;58990;46.284;13.126;2022-08-04T06:08:16;99360.91;;;26.62;42.88
41531;BME280;58990;46.284;13.126;2022-08-04T06:10:43;99358.66;;;26.69;42.33
41531;BME280;58990;46.284;13.126;2022-08-04T06:13:11;99363.06;;;26.60;42.54
41531;BME280;58990;46.284;13.126;2022-08-04T06:15:41;99360.13;;;26.56;42.17
41531;BME280;58990;46.284;13.126;2022-08-04T06:18:11;99364.16;;;26.59;42.93
41531;BME280;58990;46.284;13.126;2022-08-04T06:20:40;99368.03;;;26.47;42.67
41531;BME280;58990;46.284;13.126;2022-08-04T06:23:09;99362.44;;;26.68;42.77
41531;BME280;58990;46.284;13.126;2022-08-04T06:25:40;99359.00;;;26.92;42.45
41531;BME280;58990;46.284;13.126;2022-08-04T06:28:06;99361.31;;;27.23;41.81
41531;BME280;58990;46.284;13.126;2022-08-04T06:30:33;99358.09;;;27.20;41.56
41531;BME280;58990;46.284;13.126;2022-08-04T06:33:01;99356.50;;;27.19;41.40
41531;BME280;58990;46.284;13.126;2022-08-04T06:35:28;99354.97;;;27.57;40.93
41531;BME280;58990;46.284;13.126;2022-08-04T06:37:56;99357.44;;;27.72;40.79
41531;BME280;58990;46.284;13.126;2022-08-04T06:40:23;99353.06;;;28.14;40.03
41531;BME280;58990;46.284;13.126;2022-08-04T06:42:50;99354.31;;;28.36;38.86
41531;BME280;58990;46.284;13.126;2022-08-04T06:45:18;99353.84;;;28.62;38.36
41531;BME280;58990;46.284;13.126;2022-08-04T06:47:45;99351.84;;;28.53;38.58
41531;BME280;58990;46.284;13.126;2022-08-04T06:50:12;99362.50;;;28.45;38.49
41531;BME280;58990;46.284;13.126;2022-08-04T06:52:38;99361.31;;;28.51;38.17
41531;BME280;58990;46.284;13.126;2022-08-04T06:55:05;99354.16;;;28.74;37.87
41531;BME280;58990;46.284;13.126;2022-08-04T06:57:33;99360.97;;;28.85;37.97
41531;BME280;58990;46.284;13.126;2022-08-04T07:02:48;99362.28;;;29.02;37.77
41531;BME280;58990;46.284;13.126;2022-08-04T07:05:15;99360.34;;;29.16;37.56
41531;BME280;58990;46.284;13.126;2022-08-04T07:07:41;99360.13;;;29.55;36.63
41531;BME280;58990;46.284;13.126;2022-08-04T07:10:08;99352.13;;;29.86;35.75
41531;BME280;58990;46.284;13.126;2022-08-04T07:12:35;99349.72;;;30.07;35.50
41531;BME280;58990;46.284;13.126;2022-08-04T07:15:03;99359.28;;;30.36;34.97
41531;BME280;58990;46.284;13.126;2022-08-04T07:17:29;99357.03;;;30.38;34.89
41531;BME280;58990;46.284;13.126;2022-08-04T07:19:55;99357.03;;;30.38;34.70
41531;BME280;58990;46.284;13.126;2022-08-04T07:22:23;99358.63;;;30.62;33.85
41531;BME280;58990;46.284;13.126;2022-08-04T07:24:54;99356.91;;;30.66;33.98
41531;BME280;58990;46.284;13.126;2022-08-04T07:27:20;99361.09;;;30.81;33.77
41531;BME280;58990;46.284;13.126;2022-08-04T07:29:46;99362.34;;;31.24;33.52
41531;BME280;58990;46.284;13.126;2022-08-04T07:32:13;99356.81;;;31.46;33.37
41531;BME280;58990;46.284;13.126;2022-08-04T07:34:41;99361.09;;;31.47;32.79
41531;BME280;58990;46.284;13.126;2022-08-04T07:37:07;99359.22;;;31.74;32.80
41531;BME280;58990;46.284;13.126;2022-08-04T07:39:33;99364.63;;;31.92;32.01
41531;BME280;58990;46.284;13.126;2022-08-04T07:42:02;99363.34;;;32.15;31.50
41531;BME280;58990;46.284;13.126;2022-08-04T07:44:32;99359.97;;;32.18;31.53
41531;BME280;58990;46.284;13.126;2022-08-04T07:46:59;99358.22;;;32.14;31.14
41531;BME280;58990;46.284;13.126;2022-08-04T07:49:25;99355.50;;;32.23;30.97
41531;BME280;58990;46.284;13.126;2022-08-04T07:51:52;99346.53;;;32.13;31.59
41531;BME280;58990;46.284;13.126;2022-08-04T07:54:18;99352.94;;;32.26;31.06
41531;BME280;58990;46.284;13.126;2022-08-04T07:56:45;99356.00;;;32.63;30.99
41531;BME280;58990;46.284;13.126;2022-08-04T07:59:13;99351.59;;;32.89;30.57
41531;BME280;58990;46.284;13.126;2022-08-04T08:01:39;99344.00;;;33.03;30.50
41531;BME280;58990;46.284;13.126;2022-08-04T08:04:05;99345.31;;;33.27;29.75
41531;BME280;58990;46.284;13.126;2022-08-04T08:06:35;99346.38;;;33.34;29.42
41531;BME280;58990;46.284;13.126;2022-08-04T08:09:10;99343.19;;;33.53;29.48
41531;BME280;58990;46.284;13.126;2022-08-04T08:11:36;99340.91;;;33.98;28.26
41531;BME280;58990;46.284;13.126;2022-08-04T08:14:02;99346.59;;;34.05;28.33
41531;BME280;58990;46.284;13.126;2022-08-04T08:16:27;99335.81;;;34.54;28.12
41531;BME280;58990;46.284;13.126;2022-08-04T08:18:54;99343.78;;;34.84;28.17
41531;BME280;58990;46.284;13.126;2022-08-04T08:21:21;99341.78;;;35.22;28.15
41531;BME280;58990;46.284;13.126;2022-08-04T08:23:46;99338.88;;;35.56;26.67
41531;BME280;58990;46.284;13.126;2022-08-04T08:26:12;99335.69;;;35.53;26.98
41531;BME280;58990;46.284;13.126;2022-08-04T08:28:38;99337.19;;;35.79;27.42
41531;BME280;58990;46.284;13.126;2022-08-04T08:31:04;99338.66;;;35.89;26.31
41531;BME280;58990;46.284;13.126;2022-08-04T08:33:30;99339.97;;;35.67;26.49
41531;BME280;58990;46.284;13.126;2022-08-04T08:36:08;99345.19;;;35.72;26.10
41531;BME280;58990;46.284;13.126;2022-08-04T08:52:55;99334.50;;;35.67;23.70
41531;BME280;58990;46.284;13.126;2022-08-04T09:06:55;99342.22;;;35.77;25.11
41531;BME280;58990;46.284;13.126;2022-08-04T09:20:45;99335.13;;;35.07;25.16
41531;BME280;58990;46.284;13.126;2022-08-04T09:26:04;99321.06;;;35.46;24.34
41531;BME280;58990;46.284;13.126;2022-08-04T09:28:40;99321.06;;;36.18;24.49
41531;BME280;58990;46.284;13.126;2022-08-04T09:31:12;99324.78;;;36.74;23.62
41531;BME280;58990;46.284;13.126;2022-08-04T09:36:40;99320.78;;;36.08;23.58
41531;BME280;58990;46.284;13.126;2022-08-04T09:42:17;99321.13;;;36.06;22.62
41531;BME280;58990;46.284;13.126;2022-08-04T09:47:48;99317.34;;;36.27;22.58
41531;BME280;58990;46.284;13.126;2022-08-04T09:59:08;99305.53;;;36.70;23.34
41531;BME280;58990;46.284;13.126;2022-08-04T10:01:36;99306.66;;;37.60;22.31
41531;BME280;58990;46.284;13.126;2022-08-04T10:04:07;99303.44;;;37.35;22.51
41531;BME280;58990;46.284;13.126;2022-08-04T10:32:24;99286.84;;;37.86;22.68
41531;BME280;58990;46.284;13.126;2022-08-04T10:37:41;99283.69;;;37.26;22.54
41531;BME280;58990;46.284;13.126;2022-08-04T10:40:13;99277.34;;;36.50;23.55
41531;BME280;58990;46.284;13.126;2022-08-04T10:54:11;99266.59;;;38.68;21.41
41531;BME280;58990;46.284;13.126;2022-08-04T10:56:45;99260.41;;;38.44;21.99
41531;BME280;58990;46.284;13.126;2022-08-04T10:59:22;99254.72;;;38.60;21.14
41531;BME280;58990;46.284;13.126;2022-08-04T11:01:51;99256.97;;;38.51;21.56
41531;BME280;58990;46.284;13.126;2022-08-04T11:07:03;99253.63;;;37.68;23.11
41531;BME280;58990;46.284;13.126;2022-08-04T11:09:30;99254.75;;;38.10;22.18
41531;BME280;58990;46.284;13.126;2022-08-04T11:14:52;99244.72;;;37.95;22.94
41531;BME280;58990;46.284;13.126;2022-08-04T11:17:25;99245.69;;;37.83;22.84
41531;BME280;58990;46.284;13.126;2022-08-04T11:31:31;99247.28;;;37.84;22.93
41531;BME280;58990;46.284;13.126;2022-08-04T11:39:49;99237.69;;;37.74;22.69
41531;BME280;58990;46.284;13.126;2022-08-04T11:45:02;99232.56;;;38.42;21.70
41531;BME280;58990;46.284;13.126;2022-08-04T11:50:22;99233.28;;;38.93;21.18
41531;BME280;58990;46.284;13.126;2022-08-04T11:52:52;99238.19;;;38.80;21.27
41531;BME280;58990;46.284;13.126;2022-08-04T11:55:20;99225.69;;;38.82;21.34
41531;BME280;58990;46.284;13.126;2022-08-04T11:57:47;99223.81;;;39.20;21.25
41531;BME280;58990;46.284;13.126;2022-08-04T12:00:15;99227.53;;;38.75;21.79
41531;BME280;58990;46.284;13.126;2022-08-04T12:05:31;99220.59;;;38.84;21.95
41531;BME280;58990;46.284;13.126;2022-08-04T12:13:45;99225.91;;;37.93;22.95
41531;BME280;58990;46.284;13.126;2022-08-04T12:16:23;99218.09;;;38.18;22.61
41531;BME280;58990;46.284;13.126;2022-08-04T12:19:02;99217.16;;;38.61;22.09
41531;BME280;58990;46.284;13.126;2022-08-04T12:21:45;99212.81;;;38.29;22.67
41531;BME280;58990;46.284;13.126;2022-08-04T12:24:33;99219.56;;;38.66;22.06
41531;BME280;58990;46.284;13.126;2022-08-04T12:27:10;99214.63;;;38.48;22.74
41531;BME280;58990;46.284;13.126;2022-08-04T12:29:39;99219.38;;;38.51;22.69
41531;BME280;58990;46.284;13.126;2022-08-04T12:32:16;99220.13;;;38.48;22.40
41531;BME280;58990;46.284;13.126;2022-08-04T12:34:48;99211.97;;;38.82;21.80
41531;BME280;58990;46.284;13.126;2022-08-04T12:40:12;99218.66;;;38.04;22.63
41531;BME280;58990;46.284;13.126;2022-08-04T12:42:44;99222.63;;;37.41;23.11
41531;BME280;58990;46.284;13.126;2022-08-04T12:45:13;99211.09;;;37.51;22.98
41531;BME280;58990;46.284;13.126;2022-08-04T12:47:40;99211.31;;;37.85;23.15
41531;BME280;58990;46.284;13.126;2022-08-04T12:50:07;99213.31;;;38.12;22.67
41531;BME280;58990;46.284;13.126;2022-08-04T12:52:45;99212.66;;;38.22;22.73
41531;BME280;58990;46.284;13.126;2022-08-04T12:55:12;99212.50;;;38.65;21.80
41531;BME280;58990;46.284;13.126;2022-08-04T12:57:39;99213.28;;;38.35;22.27
41531;BME280;58990;46.284;13.126;2022-08-04T13:00:07;99208.75;;;38.23;22.65
41531;BME280;58990;46.284;13.126;2022-08-04T13:02:38;99210.63;;;37.92;22.84
41531;BME280;58990;46.284;13.126;2022-08-04T13:05:06;99212.38;;;37.58;22.95
41531;BME280;58990;46.284;13.126;2022-08-04T13:07:37;99208.09;;;37.80;22.97
41531;BME280;58990;46.284;13.126;2022-08-04T13:10:12;99209.91;;;37.95;22.43
41531;BME280;58990;46.284;13.126;2022-08-04T13:12:40;99206.84;;;36.76;23.74
41531;BME280;58990;46.284;13.126;2022-08-04T13:15:16;99203.78;;;37.16;23.90
41531;BME280;58990;46.284;13.126;2022-08-04T13:20:32;99195.63;;;37.40;22.93
41531;BME280;58990;46.284;13.126;2022-08-04T13:23:10;99196.53;;;37.90;22.84
41531;BME280;58990;46.284;13.126;2022-08-04T13:25:41;99191.56;;;37.53;23.70
41531;BME280;58990;46.284;13.126;2022-08-04T13:28:12;99202.56;;;37.33;23.26
41531;BME280;58990;46.284;13.126;2022-08-04T13:30:41;99190.69;;;36.86;23.97
41531;BME280;58990;46.284;13.126;2022-08-04T13:33:08;99195.63;;;37.40;23.09
41531;BME280;58990;46.284;13.126;2022-08-04T13:35:41;99191.53;;;37.10;23.83
41531;BME280;58990;46.284;13.126;2022-08-04T13:38:10;99185.94;;;37.03;24.52
41531;BME280;58990;46.284;13.126;2022-08-04T13:40:37;99193.88;;;36.53;24.81
41531;BME280;58990;46.284;13.126;2022-08-04T13:43:05;99189.63;;;36.75;24.56
41531;BME280;58990;46.284;13.126;2022-08-04T13:45:31;99194.97;;;36.68;24.30
41531;BME280;58990;46.284;13.126;2022-08-04T13:47:58;99181.16;;;36.80;24.60
41531;BME280;58990;46.284;13.126;2022-08-04T13:50:29;99189.22;;;36.73;24.28
41531;BME280;58990;46.284;13.126;2022-08-04T13:52:58;99182.31;;;36.60;25.00
41531;BME280;58990;46.284;13.126;2022-08-04T13:58:22;99185.47;;;35.62;25.81
41531;BME280;58990;46.284;13.126;2022-08-04T14:01:05;99182.97;;;36.21;25.81
41531;BME280;58990;46.284;13.126;2022-08-04T14:03:38;99181.56;;;36.27;25.26
41531;BME280;58990;46.284;13.126;2022-08-04T14:06:16;99189.19;;;35.86;25.20
41531;BME280;58990;46.284;13.126;2022-08-04T14:08:54;99189.28;;;35.90;25.53
41531;BME280;58990;46.284;13.126;2022-08-04T14:11:38;99184.34;;;36.47;24.64
41531;BME280;58990;46.284;13.126;2022-08-04T14:14:27;99179.69;;;36.47;24.99
41531;BME280;58990;46.284;13.126;2022-08-04T14:27:55;99188.91;;;36.39;25.24
41531;BME280;58990;46.284;13.126;2022-08-04T14:30:32;99173.66;;;35.74;25.30
41531;BME280;58990;46.284;13.126;2022-08-04T14:35:40;99166.88;;;35.68;25.94
41531;BME280;58990;46.284;13.126;2022-08-04T14:38:10;99168.81;;;35.51;26.28
41531;BME280;58990;46.284;13.126;2022-08-04T14:40:38;99172.16;;;35.61;26.07
41531;BME280;58990;46.284;13.126;2022-08-04T14:43:05;99173.66;;;34.73;26.83
41531;BME280;58990;46.284;13.126;2022-08-04T14:48:11;99165.09;;;36.08;25.03
41531;BME280;58990;46.284;13.126;2022-08-04T14:53:22;99162.66;;;35.54;25.76
41531;BME280;58990;46.284;13.126;2022-08-04T14:55:52;99166.34;;;35.46;26.60
41531;BME280;58990;46.284;13.126;2022-08-04T15:01:02;99160.59;;;35.35;26.37
41531;BME280;58990;46.284;13.126;2022-08-04T15:03:29;99160.16;;;35.33;26.62
41531;BME280;58990;46.284;13.126;2022-08-04T15:05:57;99168.00;;;35.35;26.64
41531;BME280;58990;46.284;13.126;2022-08-04T15:08:23;99161.66;;;35.47;26.68
41531;BME280;58990;46.284;13.126;2022-08-04T15:10:49;99161.91;;;35.42;26.64
41531;BME280;58990;46.284;13.126;2022-08-04T15:13:14;99161.63;;;35.02;26.71
41531;BME280;58990;46.284;13.126;2022-08-04T15:15:41;99157.28;;;35.14;27.55
41531;BME280;58990;46.284;13.126;2022-08-04T15:18:08;99155.94;;;35.36;26.85
41531;BME280;58990;46.284;13.126;2022-08-04T15:20:34;99154.53;;;35.42;27.43
41531;BME280;58990;46.284;13.126;2022-08-04T15:23:01;99149.50;;;35.00;27.95
41531;BME280;58990;46.284;13.126;2022-08-04T15:25:38;99147.97;;;34.74;27.67
41531;BME280;58990;46.284;13.126;2022-08-04T15:28:06;99152.53;;;35.11;26.90
41531;BME280;58990;46.284;13.126;2022-08-04T15:30:36;99152.25;;;34.87;27.42
41531;BME280;58990;46.284;13.126;2022-08-04T15:33:03;99147.88;;;34.70;27.81
41531;BME280;58990;46.284;13.126;2022-08-04T15:35:30;99144.88;;;34.10;27.99
41531;BME280;58990;46.284;13.126;2022-08-04T15:40:58;99145.34;;;34.12;28.33
41531;BME280;58990;46.284;13.126;2022-08-04T15:46:11;99143.25;;;34.59;27.73
41531;BME280;58990;46.284;13.126;2022-08-04T15:48:37;99138.28;;;34.48;27.96
41531;BME280;58990;46.284;13.126;2022-08-04T15:51:09;99139.63;;;34.54;27.67
41531;BME280;58990;46.284;13.126;2022-08-04T15:59:14;99129.25;;;34.73;27.78
41531;BME280;58990;46.284;13.126;2022-08-04T16:01:40;99130.88;;;34.61;27.83
41531;BME280;58990;46.284;13.126;2022-08-04T16:04:23;99136.13;;;34.54;28.34
41531;BME280;58990;46.284;13.126;2022-08-04T16:06:49;99134.94;;;34.67;27.57
41531;BME280;58990;46.284;13.126;2022-08-04T16:09:23;99129.88;;;34.53;28.14
41531;BME280;58990;46.284;13.126;2022-08-04T16:11:50;99132.16;;;34.27;28.34
41531;BME280;58990;46.284;13.126;2022-08-04T16:14:16;99127.06;;;34.25;29.00
41531;BME280;58990;46.284;13.126;2022-08-04T16:16:54;99123.97;;;34.51;27.80
41531;BME280;58990;46.284;13.126;2022-08-04T16:21:59;99117.09;;;34.70;27.73
41531;BME280;58990;46.284;13.126;2022-08-04T16:24:29;99128.78;;;34.42;27.99
41531;BME280;58990;46.284;13.126;2022-08-04T16:26:56;99118.53;;;34.39;28.78
41531;BME280;58990;46.284;13.126;2022-08-04T16:35:00;99122.50;;;34.54;28.32
41531;BME280;58990;46.284;13.126;2022-08-04T16:37:36;99118.00;;;34.33;28.77
41531;BME280;58990;46.284;13.126;2022-08-04T16:40:23;99114.50;;;34.33;28.55
41531;BME280;58990;46.284;13.126;2022-08-04T16:42:50;99116.53;;;34.11;28.28
41531;BME280;58990;46.284;13.126;2022-08-04T16:45:17;99122.66;;;33.83;29.31
41531;BME280;58990;46.284;13.126;2022-08-04T16:51:06;99116.06;;;33.47;29.12
41531;BME280;58990;46.284;13.126;2022-08-04T16:53:40;99113.91;;;33.65;28.93
41531;BME280;58990;46.284;13.126;2022-08-04T16:56:09;99118.09;;;33.63;29.48
41531;BME280;58990;46.284;13.126;2022-08-04T16:58:35;99113.59;;;33.79;29.61
41531;BME280;58990;46.284;13.126;2022-08-04T17:01:13;99114.50;;;33.83;29.35
41531;BME280;58990;46.284;13.126;2022-08-04T17:03:40;99116.63;;;33.65;29.41
41531;BME280;58990;46.284;13.126;2022-08-04T17:06:13;99114.44;;;33.34;29.36
41531;BME280;58990;46.284;13.126;2022-08-04T17:08:43;99114.69;;;33.20;29.73
41531;BME280;58990;46.284;13.126;2022-08-04T17:11:10;99122.81;;;33.41;29.34
41531;BME280;58990;46.284;13.126;2022-08-04T17:13:38;99118.88;;;33.17;30.11
41531;BME280;58990;46.284;13.126;2022-08-04T17:16:08;99122.00;;;33.28;29.47
41531;BME280;58990;46.284;13.126;2022-08-04T17:18:36;99124.72;;;33.28;30.54
41531;BME280;58990;46.284;13.126;2022-08-04T17:21:12;99117.38;;;33.41;29.97
41531;BME280;58990;46.284;13.126;2022-08-04T17:23:40;99121.91;;;33.37;30.13
41531;BME280;58990;46.284;13.126;2022-08-04T17:28:46;99118.50;;;33.28;30.68
41531;BME280;58990;46.284;13.126;2022-08-04T17:31:12;99120.94;;;33.20;30.48
41531;BME280;58990;46.284;13.126;2022-08-04T17:33:42;99125.00;;;33.14;30.43
41531;BME280;58990;46.284;13.126;2022-08-04T17:36:09;99136.72;;;32.94;31.16
41531;BME280;58990;46.284;13.126;2022-08-04T17:38:44;99129.69;;;32.93;31.83
41531;BME280;58990;46.284;13.126;2022-08-04T17:41:13;99123.56;;;32.96;31.28
41531;BME280;58990;46.284;13.126;2022-08-04T17:43:50;99127.59;;;32.77;31.94
41531;BME280;58990;46.284;13.126;2022-08-04T17:51:58;99134.28;;;32.80;32.43
41531;BME280;58990;46.284;13.126;2022-08-04T17:54:35;99127.88;;;32.54;32.41
41531;BME280;58990;46.284;13.126;2022-08-04T17:57:15;99139.69;;;32.59;32.97
41531;BME280;58990;46.284;13.126;2022-08-04T17:59:42;99140.81;;;32.58;32.92
41531;BME280;58990;46.284;13.126;2022-08-04T18:02:09;99139.88;;;32.53;33.03
41531;BME280;58990;46.284;13.126;2022-08-04T18:07:17;99140.41;;;32.47;34.14
41531;BME280;58990;46.284;13.126;2022-08-04T18:15:03;99134.72;;;32.01;35.92
41531;BME280;58990;46.284;13.126;2022-08-04T18:20:09;99149.09;;;31.63;37.11
41531;BME280;58990;46.284;13.126;2022-08-04T18:22:36;99151.84;;;31.36;38.00
41531;BME280;58990;46.284;13.126;2022-08-04T18:25:03;99153.31;;;31.16;38.48
41531;BME280;58990;46.284;13.126;2022-08-04T18:27:30;99156.00;;;30.99;39.19
41531;BME280;58990;46.284;13.126;2022-08-04T18:29:57;99153.00;;;30.83;39.93
41531;BME280;58990;46.284;13.126;2022-08-04T18:32:22;99158.53;;;30.69;39.65
41531;BME280;58990;46.284;13.126;2022-08-04T18:34:50;99153.91;;;30.61;39.98
41531;BME280;58990;46.284;13.126;2022-08-04T18:37:16;99160.31;;;30.56;39.95
41531;BME280;58990;46.284;13.126;2022-08-04T18:39:42;99158.06;;;30.58;39.67
41531;BME280;58990;46.284;13.126;2022-08-04T18:42:08;99168.28;;;30.70;39.33
41531;BME280;58990;46.284;13.126;2022-08-04T18:44:34;99167.16;;;30.71;39.58
41531;BME280;58990;46.284;13.126;2022-08-04T18:47:01;99162.22;;;30.73;38.01
41531;BME280;58990;46.284;13.126;2022-08-04T18:49:27;99165.72;;;30.65;38.66
41531;BME280;58990;46.284;13.126;2022-08-04T18:51:53;99161.88;;;30.48;38.60
41531;BME280;58990;46.284;13.126;2022-08-04T18:54:20;99168.22;;;30.44;38.96
41531;BME280;58990;46.284;13.126;2022-08-04T18:56:48;99168.69;;;30.37;39.41
41531;BME280;58990;46.284;13.126;2022-08-04T18:59:14;99176.44;;;30.30;39.59
41531;BME280;58990;46.284;13.126;2022-08-04T19:01:39;99177.22;;;30.22;40.05
41531;BME280;58990;46.284;13.126;2022-08-04T19:04:05;99183.91;;;30.15;39.88
41531;BME280;58990;46.284;13.126;2022-08-04T19:06:31;99187.50;;;30.02;40.38
41531;BME280;58990;46.284;13.126;2022-08-04T19:08:57;99186.22;;;29.99;40.35
41531;BME280;58990;46.284;13.126;2022-08-04T19:11:23;99191.91;;;29.89;40.97
41531;BME280;58990;46.284;13.126;2022-08-04T19:13:48;99193.56;;;29.76;41.77
41531;BME280;58990;46.284;13.126;2022-08-04T19:16:14;99194.13;;;29.64;41.92
41531;BME280;58990;46.284;13.126;2022-08-04T19:18:39;99204.53;;;29.48;42.44
41531;BME280;58990;46.284;13.126;2022-08-04T19:21:05;99199.91;;;29.49;42.51